Time;durP1;ratioP1;P1;durP2;ratioP2;P2;SDS_P1;SDS_P2;PMS_P1;PMS_P2;Temp;Humidity;BMP_temperature;BMP_pressure;BME280_temperature;BME280_humidity;BME280_pressure;Samples;Min_cycle;Max_cycle;Signal;HPM_P1;HPM_P2
2022/10/23 00:01:50;;;;;;;23.33;10.25;;;;;;;12.76;100.00;101300.50;5090212;28;20069;-66
2022/10/23 00:04:24;;;;;;;20.35;11.70;;;;;;;12.76;100.00;101293.47;5090890;28;20032;-67
2022/10/23 00:06:49;;;;;;;31.95;11.70;;;;;;;12.76;100.00;101290.81;5079792;28;20104;-68
2022/10/23 00:09:19;;;;;;;21.70;11.30;;;;;;;12.76;100.00;101293.47;5072725;28;20442;-66
2022/10/23 00:11:49;;;;;;;17.80;10.57;;;;;;;12.76;100.00;101293.47;5073539;28;20047;-67
2022/10/23 00:14:16;;;;;;;19.60;9.85;;;;;;;12.75;100.00;101283.78;5071240;28;20104;-67
2022/10/23 00:16:43;;;;;;;27.02;10.65;;;;;;;12.74;100.00;101287.28;5090768;28;20379;-67
2022/10/23 00:19:08;;;;;;;17.85;10.07;;;;;;;12.74;100.00;101289.94;5091569;28;20016;-68
2022/10/23 00:21:33;;;;;;;27.45;10.15;;;;;;;12.73;100.00;101288.16;5088331;28;20099;-66
2022/10/23 00:23:59;;;;;;;11.93;8.90;;;;;;;12.68;100.00;101295.09;5078449;28;20392;-67
2022/10/23 00:26:24;;;;;;;19.48;11.00;;;;;;;12.71;100.00;101288.97;5083249;28;20480;-67
2022/10/23 00:28:52;;;;;;;15.98;9.20;;;;;;;12.68;100.00;101284.53;5091295;28;20028;-67
2022/10/23 00:31:19;;;;;;;16.02;9.40;;;;;;;12.65;100.00;101289.78;5091524;28;20120;-67
2022/10/23 00:33:45;;;;;;;18.05;9.75;;;;;;;12.60;100.00;101286.19;5080217;28;20099;-68
2022/10/23 00:36:12;;;;;;;14.70;9.32;;;;;;;12.59;100.00;101284.44;5092784;28;20034;-67
2022/10/23 00:38:38;;;;;;;20.30;10.48;;;;;;;12.59;100.00;101287.06;5083760;28;20357;-67
2022/10/23 00:41:06;;;;;;;22.27;10.90;;;;;;;12.58;100.00;101293.22;5080691;28;20052;-67
2022/10/23 00:43:32;;;;;;;18.77;10.35;;;;;;;12.56;100.00;101300.19;5077899;28;20395;-67
2022/10/23 00:45:58;;;;;;;20.10;10.68;;;;;;;12.55;100.00;101293.16;5093698;28;20030;-68
2022/10/23 00:48:26;;;;;;;21.35;10.85;;;;;;;12.49;100.00;101288.66;5093550;28;20103;-67
2022/10/23 00:50:51;;;;;;;17.88;10.27;;;;;;;12.47;100.00;101279.84;5092140;28;20032;-66
2022/10/23 00:53:19;;;;;;;23.27;11.52;;;;;;;12.45;100.00;101282.47;5094655;28;20027;-67
2022/10/23 00:55:47;;;;;;;26.10;12.07;;;;;;;12.46;100.00;101280.69;5094988;28;20035;-67
2022/10/23 00:58:17;;;;;;;20.55;12.00;;;;;;;12.45;100.00;101281.56;5095141;28;20044;-68
2022/10/23 01:00:50;;;;;;;28.92;12.30;;;;;;;12.46;100.00;101281.56;5092373;28;20024;-67
2022/10/23 01:03:18;;;;;;;26.48;11.30;;;;;;;12.45;100.00;101269.25;5093502;28;20024;-66
2022/10/23 01:06:03;;;;;;;23.48;11.30;;;;;;;12.45;100.00;101271.00;5091435;28;20476;-67
2022/10/23 01:08:54;;;;;;;19.25;10.65;;;;;;;12.47;100.00;101270.16;5091887;28;20032;-68
2022/10/23 01:11:58;;;;;;;28.90;12.15;;;;;;;12.48;100.00;101268.44;5087978;28;20032;-68
2022/10/23 01:14:51;;;;;;;17.87;10.77;;;;;;;12.51;100.00;101265.81;5024267;28;20442;-67
2022/10/23 01:17:28;;;;;;;22.13;11.32;;;;;;;12.52;100.00;101266.69;5075418;28;20036;-67
2022/10/23 01:20:38;;;;;;;22.40;10.82;;;;;;;12.52;100.00;101257.03;5078641;28;20483;-68
2022/10/23 01:23:38;;;;;;;20.85;11.60;;;;;;;12.51;100.00;101259.63;5089181;28;20062;-68
2022/10/23 01:26:59;;;;;;;19.88;11.07;;;;;;;12.52;100.00;101256.13;5089364;28;20020;-68
2022/10/23 01:29:41;;;;;;;19.77;10.77;;;;;;;12.52;100.00;101257.03;5008488;28;20517;-67
2022/10/23 01:32:26;;;;;;;18.45;10.40;;;;;;;12.51;100.00;101257.91;5091454;28;20034;-67
2022/10/23 01:35:01;;;;;;;29.92;12.00;;;;;;;12.52;100.00;101256.13;5090051;28;20032;-67
2022/10/23 01:37:37;;;;;;;23.95;11.88;;;;;;;12.52;100.00;101248.22;5090711;28;20020;-67
2022/10/23 01:40:07;;;;;;;18.13;10.93;;;;;;;12.55;100.00;101250.94;5092620;28;20024;-67
2022/10/23 01:42:38;;;;;;;31.63;11.27;;;;;;;12.55;100.00;101240.38;5083014;28;20027;-68
2022/10/23 01:45:11;;;;;;;25.73;11.27;;;;;;;12.56;100.00;101245.66;5089216;28;20024;-67
2022/10/23 01:47:38;;;;;;;21.27;9.93;;;;;;;12.57;100.00;101230.72;5093030;28;20034;-67
2022/10/23 01:50:06;;;;;;;23.67;10.95;;;;;;;12.57;100.00;101222.78;5085040;28;20060;-67
2022/10/23 01:52:31;;;;;;;16.63;9.75;;;;;;;12.56;100.00;101221.00;5083658;28;20040;-67
2022/10/23 01:55:00;;;;;;;19.52;10.52;;;;;;;12.55;100.00;101213.97;5090242;28;20028;-68
2022/10/23 01:57:29;;;;;;;23.83;11.05;;;;;;;12.57;100.00;101225.44;5086498;28;20090;-67
2022/10/23 02:00:00;;;;;;;14.07;10.35;;;;;;;12.56;100.00;101218.38;5084237;28;20032;-67
2022/10/23 02:02:27;;;;;;;18.25;10.65;;;;;;;12.56;100.00;101210.44;5092531;28;20103;-67
2022/10/23 02:04:52;;;;;;;19.98;10.73;;;;;;;12.53;100.00;101216.56;5086071;28;20043;-68
2022/10/23 02:07:18;;;;;;;21.15;11.68;;;;;;;12.53;100.00;101221.84;5091951;28;20132;-67
2022/10/23 02:09:43;;;;;;;21.48;11.55;;;;;;;12.52;100.00;101216.53;5093223;28;20062;-68
2022/10/23 02:12:17;;;;;;;19.05;10.20;;;;;;;12.52;100.00;101211.25;5089958;28;20028;-66
2022/10/23 02:14:42;;;;;;;25.10;10.35;;;;;;;12.50;100.00;101216.53;5075444;28;20123;-67
2022/10/23 02:17:15;;;;;;;18.40;10.48;;;;;;;12.47;100.00;101216.50;5093547;28;20551;-68
2022/10/23 02:19:54;;;;;;;21.85;10.60;;;;;;;12.45;100.00;101211.19;5076159;28;20403;-68
2022/10/23 02:22:32;;;;;;;24.20;11.55;;;;;;;12.43;100.00;101210.28;5081174;28;20029;-67
2022/10/23 02:25:16;;;;;;;20.40;11.57;;;;;;;12.41;100.00;101198.81;5081495;28;20024;-68
2022/10/23 02:27:52;;;;;;;24.70;10.80;;;;;;;12.40;100.00;101210.22;5077208;28;20475;-68
2022/10/23 02:30:19;;;;;;;19.52;10.32;;;;;;;12.39;100.00;101200.53;5087117;28;20031;-67
2022/10/23 02:32:48;;;;;;;19.35;10.60;;;;;;;12.39;100.00;101202.31;5092071;28;20020;-68
2022/10/23 02:35:13;;;;;;;26.77;10.57;;;;;;;12.36;100.00;101200.50;5081280;28;20468;-67
2022/10/23 02:37:39;;;;;;;32.65;11.32;;;;;;;12.35;100.00;101204.00;5087616;28;20031;-67
2022/10/23 02:40:07;;;;;;;21.02;10.30;;;;;;;12.36;100.00;101202.22;5080326;28;20032;-67
2022/10/23 02:42:41;;;;;;;21.67;10.70;;;;;;;12.34;100.00;101194.28;5085674;28;20061;-66
2022/10/23 02:45:31;;;;;;;18.33;9.50;;;;;;;12.34;100.00;101188.13;5081310;28;20032;-67
2022/10/23 02:48:22;;;;;;;18.35;10.50;;;;;;;12.30;100.00;101182.81;5092422;28;20115;-68
2022/10/23 02:51:02;;;;;;;17.55;9.77;;;;;;;12.29;100.00;101177.53;5089288;28;20040;-67
2022/10/23 02:53:53;;;;;;;18.38;10.80;;;;;;;12.27;100.00;101176.59;5086219;28;20024;-67
2022/10/23 02:56:39;;;;;;;18.35;10.43;;;;;;;12.25;100.00;101165.13;5083581;28;20138;-68
2022/10/23 02:59:13;;;;;;;21.55;10.65;;;;;;;12.22;100.00;101159.81;5089543;28;20046;-68
2022/10/23 03:01:45;;;;;;;16.98;10.45;;;;;;;12.21;100.00;101151.03;5092321;28;20032;-68
2022/10/23 03:04:13;;;;;;;19.33;10.50;;;;;;;12.18;100.00;101142.16;5092522;28;20073;-68
2022/10/23 03:06:38;;;;;;;14.93;9.75;;;;;;;12.19;100.00;101143.94;5075576;28;20036;-69
2022/10/23 03:09:07;;;;;;;15.98;9.52;;;;;;;12.20;100.00;101143.09;5083122;28;20036;-69
2022/10/23 03:11:32;;;;;;;21.92;10.38;;;;;;;12.21;100.00;101134.28;5083354;28;20042;-68
2022/10/23 03:13:57;;;;;;;20.30;10.15;;;;;;;12.21;100.00;101134.28;5088467;28;20028;-68
2022/10/23 03:16:23;;;;;;;23.27;9.75;;;;;;;12.22;100.00;101136.06;5086026;28;20069;-68
2022/10/23 03:18:48;;;;;;;15.70;9.95;;;;;;;12.24;100.00;101139.63;5087731;28;20039;-67
2022/10/23 03:21:14;;;;;;;14.82;8.73;;;;;;;12.23;100.00;101138.72;5085642;28;20033;-67
2022/10/23 03:23:39;;;;;;;17.30;9.50;;;;;;;12.25;100.00;101133.47;5077415;28;20077;-67
2022/10/23 03:26:05;;;;;;;18.33;9.52;;;;;;;12.24;100.00;101129.06;5090113;28;20036;-67
2022/10/23 03:28:30;;;;;;;18.80;8.85;;;;;;;12.24;100.00;101135.22;5085852;28;20028;-66
2022/10/23 03:30:55;;;;;;;16.58;9.13;;;;;;;12.23;100.00;101127.28;5082096;28;20024;-68
2022/10/23 03:33:21;;;;;;;15.40;9.65;;;;;;;12.24;100.00;101124.66;5090128;28;20032;-68
2022/10/23 03:35:47;;;;;;;18.27;8.70;;;;;;;12.24;100.00;101119.41;5084209;28;20020;-67
2022/10/23 03:38:12;;;;;;;22.88;9.30;;;;;;;12.25;100.00;101122.91;5082424;28;20054;-67
2022/10/23 03:40:38;;;;;;;17.30;8.55;;;;;;;12.23;100.00;101116.75;5082195;28;20491;-66
2022/10/23 03:43:03;;;;;;;21.38;8.68;;;;;;;12.21;100.00;101108.81;5080794;28;20031;-68
2022/10/23 03:45:29;;;;;;;18.83;8.55;;;;;;;12.19;100.00;101093.81;5090585;28;20031;-68
2022/10/23 03:47:55;;;;;;;19.20;7.90;;;;;;;12.18;100.00;101087.66;5081448;28;20028;-68
2022/10/23 03:50:20;;;;;;;14.10;8.45;;;;;;;12.19;100.00;101085.91;5091016;28;20360;-68
2022/10/23 03:52:45;;;;;;;14.77;8.45;;;;;;;12.18;100.00;101078.84;5075605;28;20078;-67
2022/10/23 03:55:11;;;;;;;15.73;8.60;;;;;;;12.18;100.00;101078.84;5091709;28;20482;-67
2022/10/23 03:57:37;;;;;;;14.48;8.35;;;;;;;12.17;100.00;101074.44;5072400;28;20505;-67
2022/10/23 04:00:05;;;;;;;14.65;7.82;;;;;;;12.16;100.00;101070.91;5091508;28;20028;-67
2022/10/23 04:02:30;;;;;;;15.27;8.60;;;;;;;12.17;100.00;101069.16;5081075;28;20035;-68
2022/10/23 04:04:55;;;;;;;19.10;8.60;;;;;;;12.17;100.00;101070.06;5081690;28;20476;-67
2022/10/23 04:07:21;;;;;;;14.07;8.50;;;;;;;12.18;100.00;101065.66;5078017;28;20033;-68
2022/10/23 04:09:46;;;;;;;23.52;9.55;;;;;;;12.18;100.00;101063.94;5088596;28;20024;-68
2022/10/23 04:12:11;;;;;;;18.77;8.55;;;;;;;12.20;100.00;101066.59;5095775;28;20039;-67
2022/10/23 04:14:37;;;;;;;14.27;8.05;;;;;;;12.20;100.00;101058.66;5095934;28;20075;-67
2022/10/23 04:17:02;;;;;;;21.15;8.85;;;;;;;12.20;100.00;101058.66;5095532;28;20055;-66
2022/10/23 04:19:27;;;;;;;21.10;8.88;;;;;;;12.20;100.00;101059.53;5095096;28;20499;-67
2022/10/23 04:21:53;;;;;;;19.17;8.50;;;;;;;12.23;100.00;101058.69;5091830;28;20023;-67
2022/10/23 04:24:18;;;;;;;16.38;7.97;;;;;;;12.26;100.00;101053.44;5095048;28;20028;-68
2022/10/23 04:26:43;;;;;;;16.58;8.07;;;;;;;12.27;100.00;101055.22;5093800;28;20016;-66
2022/10/23 04:29:09;;;;;;;12.02;7.63;;;;;;;12.29;100.00;101048.25;5091502;28;20028;-68
2022/10/23 04:31:34;;;;;;;13.88;8.00;;;;;;;12.28;100.00;101041.19;5086729;28;20032;-68
2022/10/23 04:33:59;;;;;;;18.17;8.80;;;;;;;12.27;100.00;101036.75;5088106;28;20025;-68
2022/10/23 04:36:25;;;;;;;20.10;8.07;;;;;;;12.26;100.00;101032.34;5091940;28;20024;-66
2022/10/23 04:38:52;;;;;;;18.83;8.40;;;;;;;12.25;100.00;101038.47;5093779;28;20031;-67
2022/10/23 04:41:17;;;;;;;21.95;8.25;;;;;;;12.24;100.00;101034.09;5090535;28;20417;-68
2022/10/23 04:43:43;;;;;;;11.75;7.50;;;;;;;12.23;100.00;101035.81;5095134;28;20034;-66
2022/10/23 04:46:08;;;;;;;19.10;7.80;;;;;;;12.25;100.00;101035.84;5093476;28;20059;-68
2022/10/23 04:48:33;;;;;;;18.27;8.13;;;;;;;12.24;100.00;101034.97;5081172;28;20033;-68
2022/10/23 04:51:03;;;;;;;17.38;7.82;;;;;;;12.23;100.00;101037.59;5085167;28;20036;-68
2022/10/23 04:53:29;;;;;;;14.73;8.00;;;;;;;12.22;100.00;101041.09;5081548;28;20028;-67
2022/10/23 04:55:56;;;;;;;15.95;7.88;;;;;;;12.22;100.00;101035.81;5094836;28;20027;-68
2022/10/23 04:58:23;;;;;;;14.38;7.15;;;;;;;12.20;100.00;101042.84;5093320;28;20098;-68
2022/10/23 05:00:49;;;;;;;17.95;8.18;;;;;;;12.22;100.00;101035.81;5078565;28;20039;-67
2022/10/23 05:03:15;;;;;;;17.27;8.15;;;;;;;12.21;100.00;101036.66;5091947;28;20102;-67
2022/10/23 05:05:41;;;;;;;16.75;7.53;;;;;;;12.23;100.00;101024.41;5085659;28;20024;-68
2022/10/23 05:08:07;;;;;;;18.58;7.85;;;;;;;12.24;100.00;101028.81;5090038;28;20036;-67
2022/10/23 05:10:33;;;;;;;17.08;7.70;;;;;;;12.24;100.00;101019.13;5091434;28;20024;-67
2022/10/23 05:12:58;;;;;;;12.07;7.30;;;;;;;12.25;100.00;101014.72;5094453;28;20035;-68
2022/10/23 05:15:23;;;;;;;15.55;7.05;;;;;;;12.25;100.00;101009.47;5086203;28;20047;-68
2022/10/23 05:17:54;;;;;;;20.10;8.20;;;;;;;12.25;100.00;101020.00;5091913;28;20074;-68
2022/10/23 05:20:23;;;;;;;15.50;7.07;;;;;;;12.26;100.00;101014.78;5090373;28;20106;-67
2022/10/23 05:22:52;;;;;;;15.95;7.90;;;;;;;12.30;100.00;101013.03;5088607;28;20396;-67
2022/10/23 05:25:17;;;;;;;22.20;7.70;;;;;;;12.31;100.00;101015.69;5085435;28;20579;-67
2022/10/23 05:27:43;;;;;;;15.43;7.40;;;;;;;12.33;100.00;101013.09;5078611;28;20108;-67
2022/10/23 05:30:09;;;;;;;17.63;7.10;;;;;;;12.36;100.00;101013.13;5083304;28;20106;-65
2022/10/23 05:32:35;;;;;;;16.98;7.30;;;;;;;12.38;100.00;101015.78;5090989;28;20032;-67
2022/10/23 05:35:05;;;;;;;15.95;7.25;;;;;;;12.40;100.00;101009.66;5089290;28;20032;-68
2022/10/23 05:37:31;;;;;;;14.50;7.20;;;;;;;12.43;100.00;101009.69;5090570;28;20051;-67
2022/10/23 05:39:57;;;;;;;13.82;8.00;;;;;;;12.45;100.00;101012.34;5085889;28;20036;-67
2022/10/23 05:42:22;;;;;;;16.38;7.88;;;;;;;12.46;100.00;101015.00;5094303;28;20034;-67
2022/10/23 05:44:47;;;;;;;15.73;7.45;;;;;;;12.48;100.00;101018.56;5085025;28;20365;-67
2022/10/23 05:47:12;;;;;;;16.95;8.25;;;;;;;12.47;100.00;101016.78;5094770;28;20410;-67
2022/10/23 05:49:38;;;;;;;14.70;7.80;;;;;;;12.47;100.00;100990.38;5092136;28;20536;-66
2022/10/23 05:52:03;;;;;;;19.17;8.80;;;;;;;12.47;100.00;100997.41;5090823;28;20102;-67
2022/10/23 05:54:28;;;;;;;11.80;7.30;;;;;;;12.47;100.00;100995.66;5089749;28;20028;-67
2022/10/23 05:56:54;;;;;;;13.30;7.53;;;;;;;12.50;100.00;100999.22;5074054;28;20500;-67
2022/10/23 05:59:20;;;;;;;17.63;8.40;;;;;;;12.50;100.00;100988.66;5074849;28;20050;-68
2022/10/23 06:01:45;;;;;;;18.13;8.48;;;;;;;12.51;100.00;100990.41;5082362;28;20020;-67
2022/10/23 06:04:10;;;;;;;15.45;8.23;;;;;;;12.50;100.00;100988.66;5077063;28;20031;-67
2022/10/23 06:06:36;;;;;;;12.48;7.80;;;;;;;12.49;100.00;100987.75;5082420;28;20460;-67
2022/10/23 06:09:02;;;;;;;15.27;7.55;;;;;;;12.49;100.00;100974.56;5088224;28;20460;-67
2022/10/23 06:11:28;;;;;;;12.00;8.18;;;;;;;12.50;100.00;100978.09;5080572;28;20040;-67
2022/10/23 06:13:54;;;;;;;16.90;8.27;;;;;;;12.50;100.00;100978.09;5094144;28;20434;-67
2022/10/23 06:16:23;;;;;;;17.27;8.82;;;;;;;12.49;100.00;100977.19;5093743;28;20024;-68
2022/10/23 06:18:49;;;;;;;22.67;8.82;;;;;;;12.47;100.00;100979.81;5091034;28;20024;-65
2022/10/23 06:21:14;;;;;;;17.88;8.38;;;;;;;12.50;100.00;100978.09;5088880;28;20028;-67
2022/10/23 06:23:41;;;;;;;20.88;8.02;;;;;;;12.47;100.00;100974.53;5078902;28;20028;-67
2022/10/23 06:26:09;;;;;;;18.23;8.40;;;;;;;12.45;100.00;100965.75;5090086;28;20028;-66
2022/10/23 06:28:36;;;;;;;13.27;8.35;;;;;;;12.45;100.00;100964.84;5089849;28;20032;-68
2022/10/23 06:31:05;;;;;;;16.70;8.18;;;;;;;12.43;100.00;100959.53;5090423;28;20421;-69
2022/10/23 06:33:31;;;;;;;17.42;8.13;;;;;;;12.47;100.00;100953.44;5089226;28;20036;-66
2022/10/23 06:35:56;;;;;;;18.38;8.25;;;;;;;12.47;100.00;100949.91;5092047;28;20039;-67
2022/10/23 06:38:22;;;;;;;15.23;7.60;;;;;;;12.46;100.00;100945.50;5089806;28;20073;-67
2022/10/23 06:40:55;;;;;;;21.27;9.52;;;;;;;12.48;100.00;100944.66;5083935;28;20891;-67
2022/10/23 06:43:20;;;;;;;12.25;7.18;;;;;;;12.48;100.00;100943.78;5076763;28;20036;-67
2022/10/23 06:45:46;;;;;;;16.58;7.57;;;;;;;12.47;100.00;100945.50;5082401;28;20425;-66
2022/10/23 06:48:11;;;;;;;14.02;8.15;;;;;;;12.48;100.00;100944.66;5073153;28;20035;-67
2022/10/23 06:50:37;;;;;;;19.17;8.02;;;;;;;12.48;100.00;100934.09;5083717;28;20103;-67
2022/10/23 06:53:04;;;;;;;19.08;8.52;;;;;;;12.51;100.00;100932.34;5079230;28;20432;-66
2022/10/23 06:55:29;;;;;;;16.83;8.20;;;;;;;12.51;100.00;100934.97;5080963;28;20794;-67
2022/10/23 06:57:55;;;;;;;21.25;7.95;;;;;;;12.53;100.00;100938.53;5074299;28;20044;-67
2022/10/23 07:00:20;;;;;;;10.95;7.57;;;;;;;12.54;100.00;100927.13;5087210;28;20035;-66
2022/10/23 07:02:46;;;;;;;16.52;7.78;;;;;;;12.54;100.00;100925.34;5084897;28;20073;-67
2022/10/23 07:05:11;;;;;;;16.95;8.02;;;;;;;12.56;100.00;100933.28;5083615;28;20111;-68
2022/10/23 07:07:37;;;;;;;17.80;8.20;;;;;;;12.59;100.00;100935.97;5084268;28;20032;-67
2022/10/23 07:10:03;;;;;;;13.77;7.63;;;;;;;12.60;100.00;100937.72;5083725;28;20106;-67
2022/10/23 07:12:28;;;;;;;20.40;8.55;;;;;;;12.60;100.00;100922.78;5085515;28;20027;-66
2022/10/23 07:14:53;;;;;;;12.27;7.53;;;;;;;12.63;100.00;100925.44;5091103;28;20383;-66
2022/10/23 07:17:19;;;;;;;10.52;7.28;;;;;;;12.68;100.00;100924.59;5092929;28;20038;-65
2022/10/23 07:19:46;;;;;;;19.45;8.70;;;;;;;12.67;100.00;100909.63;5090403;28;20028;-66
2022/10/23 07:22:11;;;;;;;18.77;7.65;;;;;;;12.70;100.00;100902.63;5077386;28;20020;-68
2022/10/23 07:24:37;;;;;;;14.43;8.52;;;;;;;12.71;100.00;100908.78;5077518;28;20506;-68
2022/10/23 07:27:03;;;;;;;17.25;8.90;;;;;;;12.73;100.00;100917.59;5082645;28;20020;-66
2022/10/23 07:29:29;;;;;;;14.85;8.30;;;;;;;12.76;100.00;100918.50;5075313;28;20017;-68
2022/10/23 07:31:54;;;;;;;14.82;8.77;;;;;;;12.78;100.00;100915.91;5072578;28;20029;-69
2022/10/23 07:34:20;;;;;;;18.67;9.10;;;;;;;12.80;100.00;100915.03;5083693;28;20054;-68
2022/10/23 07:36:45;;;;;;;16.67;8.75;;;;;;;12.84;100.00;100915.06;5079237;28;20032;-68
2022/10/23 07:39:11;;;;;;;16.98;7.68;;;;;;;12.85;100.00;100916.84;5079881;28;20098;-68
2022/10/23 07:41:36;;;;;;;26.70;9.27;;;;;;;12.86;100.00;100910.66;5080722;28;20408;-66
2022/10/23 07:44:02;;;;;;;12.32;7.78;;;;;;;12.87;100.00;100908.03;5089785;28;20031;-68
2022/10/23 07:46:28;;;;;;;14.60;8.32;;;;;;;12.91;100.00;100908.94;5080512;28;20028;-66
2022/10/23 07:48:53;;;;;;;14.10;8.63;;;;;;;12.92;100.00;100905.44;5076709;28;20024;-65
2022/10/23 07:51:18;;;;;;;14.75;8.32;;;;;;;12.93;100.00;100900.16;5091671;28;20571;-68
2022/10/23 07:53:44;;;;;;;12.40;7.15;;;;;;;12.97;100.00;100901.09;5086551;28;20388;-67
2022/10/23 07:56:21;;;;;;;14.68;8.30;;;;;;;13.00;100.00;100893.16;5076767;28;20031;-67
2022/10/23 07:58:46;;;;;;;15.75;8.15;;;;;;;13.00;100.00;100885.25;5087592;28;20020;-67
2022/10/23 08:01:22;;;;;;;16.88;8.18;;;;;;;13.02;100.00;100882.63;5081656;28;20108;-66
2022/10/23 08:03:47;;;;;;;17.63;8.15;;;;;;;13.05;100.00;100880.88;5084808;28;20032;-67
2022/10/23 08:06:13;;;;;;;18.08;7.53;;;;;;;13.08;100.00;100880.91;5092996;28;20028;-67
2022/10/23 08:08:38;;;;;;;13.07;7.55;;;;;;;13.09;100.00;100885.31;5091263;28;20119;-66
2022/10/23 08:11:03;;;;;;;13.88;7.55;;;;;;;13.13;100.00;100881.81;5088731;28;20107;-68
2022/10/23 08:13:29;;;;;;;21.98;8.18;;;;;;;13.14;100.00;100883.59;5084674;28;20127;-67
2022/10/23 08:15:55;;;;;;;15.13;8.52;;;;;;;13.16;100.00;100884.47;5089759;28;20437;-67
2022/10/23 08:18:20;;;;;;;18.65;7.50;;;;;;;13.16;100.00;100881.84;5082234;28;20020;-68
2022/10/23 08:20:47;;;;;;;16.40;7.95;;;;;;;13.18;100.00;100871.25;5076204;28;20392;-68
2022/10/23 08:23:16;;;;;;;15.80;8.18;;;;;;;13.18;100.00;100868.63;5092056;28;20383;-67
2022/10/23 08:25:42;;;;;;;12.88;8.18;;;;;;;13.21;100.00;100867.75;5094070;28;20020;-68
2022/10/23 08:28:08;;;;;;;16.67;7.78;;;;;;;13.24;100.00;100865.13;5089940;28;20039;-67
2022/10/23 08:30:34;;;;;;;19.88;8.15;;;;;;;13.24;100.00;100858.09;5087070;28;20399;-67
2022/10/23 08:33:02;;;;;;;15.98;7.15;;;;;;;13.29;100.00;100858.13;5087335;28;20063;-66
2022/10/23 08:35:27;;;;;;;10.82;7.43;;;;;;;13.32;100.00;100855.47;5095656;28;20024;-66
2022/10/23 08:37:53;;;;;;;15.88;7.18;;;;;;;13.33;100.00;100846.69;5085037;28;20378;-67
2022/10/23 08:40:23;;;;;;;16.83;7.85;;;;;;;13.35;100.00;100839.66;5085009;28;20524;-67
2022/10/23 08:43:08;;;;;;;15.45;8.30;;;;;;;13.39;100.00;100835.28;5076768;28;20103;-67
2022/10/23 08:45:42;;;;;;;11.80;7.43;;;;;;;13.40;100.00;100837.97;5077160;28;20089;-67
2022/10/23 08:48:25;;;;;;;15.80;7.50;;;;;;;13.43;100.00;100837.97;5078216;28;20036;-67
2022/10/23 08:50:59;;;;;;;16.83;7.35;;;;;;;13.46;100.00;100837.13;5082925;28;20432;-68
2022/10/23 08:53:30;;;;;;;12.85;7.20;;;;;;;13.45;100.00;100830.91;5080448;28;20028;-68
2022/10/23 08:56:16;;;;;;;14.38;6.95;;;;;;;13.51;100.00;100831.84;5085677;28;21502;-68
2022/10/23 08:58:50;;;;;;;15.25;7.75;;;;;;;13.52;100.00;100830.97;5081558;28;20047;-68
2022/10/23 09:01:54;;;;;;;14.65;6.45;;;;;;;13.59;100.00;100832.75;5081684;28;20023;-68
2022/10/23 09:04:20;;;;;;;12.50;7.00;;;;;;;13.65;100.00;100835.41;5075486;28;20048;-68
2022/10/23 09:07:08;;;;;;;11.82;7.10;;;;;;;13.68;100.00;100823.97;5083651;28;20039;-68
2022/10/23 09:09:40;;;;;;;15.05;7.05;;;;;;;13.73;100.00;100819.59;5091749;28;20028;-68
2022/10/23 09:12:12;;;;;;;14.73;7.30;;;;;;;13.75;100.00;100821.34;5089096;28;20023;-67
2022/10/23 09:15:08;;;;;;;9.07;6.50;;;;;;;13.80;100.00;100822.25;5076717;28;20024;-67
2022/10/23 09:17:37;;;;;;;14.70;6.50;;;;;;;13.83;100.00;100816.94;5075141;28;20361;-67
2022/10/23 09:20:18;;;;;;;16.00;7.03;;;;;;;13.87;100.00;100816.97;5075113;28;20032;-67
2022/10/23 09:22:45;;;;;;;16.65;6.43;;;;;;;13.89;100.00;100816.09;5074919;28;20046;-67
2022/10/23 09:25:16;;;;;;;14.80;6.30;;;;;;;13.95;100.00;100812.59;5074065;28;20078;-68
2022/10/23 09:27:47;;;;;;;8.57;5.65;;;;;;;14.02;100.00;100810.84;5077801;28;20466;-68
2022/10/23 09:30:24;;;;;;;9.13;5.45;;;;;;;14.05;100.00;100790.53;5080551;28;20039;-66
2022/10/23 09:32:49;;;;;;;10.52;5.93;;;;;;;14.06;100.00;100789.66;5075580;28;20044;-68
2022/10/23 09:35:27;;;;;;;10.02;5.70;;;;;;;14.09;100.00;100786.16;5084385;28;20024;-67
2022/10/23 09:37:53;;;;;;;9.82;6.53;;;;;;;14.09;100.00;100783.50;5094520;28;20077;-67
2022/10/23 09:40:28;;;;;;;13.63;6.50;;;;;;;14.09;100.00;100781.72;5080268;28;20025;-68
2022/10/23 09:42:59;;;;;;;14.07;5.85;;;;;;;14.09;100.00;100781.72;5074546;28;20107;-68
2022/10/23 09:45:31;;;;;;;9.63;5.68;;;;;;;14.13;100.00;100778.22;5076597;28;20476;-67
2022/10/23 09:48:23;;;;;;;14.35;6.53;;;;;;;14.18;100.00;100782.63;5075494;28;20033;-66
2022/10/23 09:51:00;;;;;;;10.02;5.70;;;;;;;14.21;100.00;100766.75;5073596;28;20373;-66
2022/10/23 09:53:29;;;;;;;12.93;6.32;;;;;;;14.20;100.00;100770.28;5074309;28;20025;-69
2022/10/23 09:55:57;;;;;;;11.43;6.53;;;;;;;14.19;100.00;100765.84;5074289;28;20115;-67
2022/10/23 09:58:38;;;;;;;12.35;6.07;;;;;;;14.16;100.00;100762.34;5074580;28;20082;-67
2022/10/23 10:01:04;;;;;;;16.75;5.95;;;;;;;14.15;100.00;100765.00;5083058;28;20031;-68
2022/10/23 10:03:30;;;;;;;12.38;6.00;;;;;;;14.15;100.00;100771.16;5088905;28;20081;-67
2022/10/23 10:06:05;;;;;;;11.23;5.57;;;;;;;14.19;100.00;100758.81;5084666;28;20020;-68
2022/10/23 10:08:45;;;;;;;8.55;5.82;;;;;;;14.23;100.00;100759.69;5074445;28;20028;-68
2022/10/23 10:11:19;;;;;;;9.77;6.05;;;;;;;14.25;100.00;100756.16;5094325;28;20042;-68
2022/10/23 10:14:06;;;;;;;11.27;5.70;;;;;;;14.26;100.00;100747.34;5083991;28;20510;-67
2022/10/23 10:16:46;;;;;;;10.38;6.18;;;;;;;14.31;100.00;100734.09;5084735;28;20032;-67
2022/10/23 10:19:29;;;;;;;9.13;5.75;;;;;;;14.27;100.00;100732.34;5087422;28;20028;-67
2022/10/23 10:21:57;;;;;;;12.98;5.32;;;;;;;14.27;100.00;100740.28;5078518;28;20032;-67
2022/10/23 10:24:45;;;;;;;11.32;5.72;;;;;;;14.30;100.00;100742.94;5082976;28;20383;-68
2022/10/23 10:27:28;;;;;;;10.05;5.78;;;;;;;14.34;100.00;100728.81;5076884;28;20043;-67
2022/10/23 10:30:15;;;;;;;12.18;5.60;;;;;;;14.44;100.00;100729.69;5082225;28;20502;-67
2022/10/23 10:32:44;;;;;;;9.60;5.75;;;;;;;14.46;100.00;100710.28;5086849;28;20502;-67
2022/10/23 10:35:18;;;;;;;10.15;5.72;;;;;;;14.53;100.00;100699.66;5088269;28;20024;-67
2022/10/23 10:38:02;;;;;;;8.27;5.80;;;;;;;14.62;100.00;100691.69;5088213;28;20478;-67
2022/10/23 10:40:34;;;;;;;10.77;5.18;;;;;;;14.66;100.00;100693.47;5080958;28;20031;-67
2022/10/23 10:43:33;;;;;;;8.98;5.43;;;;;;;14.73;100.00;100684.66;5085520;28;20088;-66
2022/10/23 10:46:20;;;;;;;11.20;5.38;;;;;;;14.76;100.00;100683.72;5086636;28;20084;-68
2022/10/23 10:49:10;;;;;;;12.45;5.20;;;;;;;14.78;100.00;100661.66;5081338;28;20089;-68
2022/10/23 10:52:32;;;;;;;13.40;4.93;;;;;;;14.83;100.00;100656.34;5084634;28;20101;-67
2022/10/23 10:55:19;;;;;;;8.70;5.30;;;;;;;14.89;100.00;100647.50;5028087;28;20043;-67
2022/10/23 10:58:19;;;;;;;22.77;9.18;;;;;;;14.94;100.00;100629.81;5089817;28;20066;-66
2022/10/23 11:00:48;;;;;;;6.28;5.13;;;;;;;15.03;100.00;100619.16;5087470;28;20040;-67
2022/10/23 11:03:39;;;;;;;12.98;6.15;;;;;;;15.10;100.00;100614.72;5067136;28;20032;-66
2022/10/23 11:06:12;;;;;;;10.88;5.75;;;;;;;15.14;100.00;100612.03;5090771;28;20442;-67
2022/10/23 11:08:38;;;;;;;7.23;5.03;;;;;;;15.22;100.00;100608.44;5086697;28;20027;-67
2022/10/23 11:11:16;;;;;;;14.32;5.75;;;;;;;15.34;100.00;100600.41;5082196;28;20602;-67
2022/10/23 11:13:43;;;;;;;11.65;5.53;;;;;;;15.39;100.00;100598.59;5077440;28;20409;-68
2022/10/23 11:16:26;;;;;;;14.07;5.68;;;;;;;15.55;100.00;100611.78;5081109;28;20021;-67
2022/10/23 11:18:59;;;;;;;11.05;5.70;;;;;;;15.70;100.00;100597.50;5076163;28;20361;-68
2022/10/23 11:21:41;;;;;;;10.05;5.40;;;;;;;15.84;100.00;100599.16;5091074;28;20028;-67
2022/10/23 11:24:45;;;;;;;7.05;4.70;;;;;;;15.97;100.00;100591.97;5080185;28;20111;-68